8°C Temp
7°C Dewpoint
93% Humidity
Temperature
19 KM/H
12 MPH
10 KTS
270°
Due West

Wind Speed
Partly Cloudy
Conditions
Pressure 999.92 (hPa) - 29.53 (in)
Visibility 6.2 (mi) - 10.0 (km)

Current Conditions
EGGD
Location 18(mi)
Metar :EGGD 051920Z AUTO 27010KT 9999 FEW039/// //////TCU 08/07 Q1000
Fri 5th June 19:20 pm

Airport
  Metar Aviation API Data Provided by https://www.checkwx.com/ PHP scripts by weather34.com ©2020